createdAt,value
2017-06-10T00:01:07.348Z,18.73
2017-06-10T00:03:22.825Z,18.83
2017-06-10T00:05:46.705Z,18.76
2017-06-10T00:08:02.184Z,18.68
2017-06-10T00:10:26.060Z,18.82
2017-06-10T00:12:41.543Z,18.81
2017-06-10T00:15:05.417Z,18.86
2017-06-10T00:17:12.512Z,18.82
2017-06-10T00:19:36.404Z,18.78
2017-06-10T00:22:00.254Z,18.71
2017-06-10T00:24:02.075Z,18.71
2017-06-10T00:26:12.397Z,18.74
2017-06-10T00:28:36.354Z,18.68
2017-06-10T00:31:00.232Z,18.7
2017-06-10T00:33:16.630Z,18.79
2017-06-10T00:35:26.505Z,18.92
2017-06-10T00:37:41.959Z,18.79
2017-06-10T00:40:05.840Z,18.71
2017-06-10T00:42:29.714Z,18.68
2017-06-10T00:44:36.696Z,18.61
2017-06-10T00:46:52.174Z,18.52
2017-06-10T00:49:16.051Z,18.45
2017-06-10T00:51:31.530Z,18.37
2017-06-10T00:53:47.011Z,18.46
2017-06-10T00:56:10.889Z,18.6
2017-06-10T00:58:34.767Z,18.48
2017-06-10T01:00:58.638Z,18.48
2017-06-10T01:02:59.948Z,18.48
2017-06-10T01:05:23.866Z,18.42
2017-06-10T01:07:47.743Z,18.46
2017-06-10T01:10:03.227Z,18.49
2017-06-10T01:12:27.004Z,18.41
2017-06-10T01:14:50.880Z,18.55
2017-06-10T01:17:06.253Z,18.34
2017-06-10T01:19:31.157Z,18.33
2017-06-10T01:21:55.035Z,18.19
2017-06-10T01:24:18.912Z,18.21
2017-06-10T01:26:20.288Z,18.19
2017-06-10T01:28:35.743Z,18.13
2017-06-10T01:30:51.218Z,18.08
2017-06-10T01:32:44.614Z,18
2017-06-10T01:35:08.461Z,18.03
2017-06-10T01:37:32.333Z,18.13
2017-06-10T01:39:47.711Z,18.21
2017-06-10T01:42:03.090Z,18.12
2017-06-10T01:44:18.586Z,17.98
2017-06-10T01:46:34.049Z,17.93
2017-06-10T01:48:43.865Z,18.06
2017-06-10T01:51:07.774Z,17.87
2017-06-10T01:53:31.652Z,17.82
2017-06-10T01:55:47.030Z,17.73
2017-06-10T01:58:10.800Z,17.65
2017-06-10T02:00:34.583Z,17.78
2017-06-10T02:02:58.355Z,17.95
2017-06-10T02:05:22.230Z,18
2017-06-10T02:07:46.107Z,18.06
2017-06-10T02:10:01.485Z,18.05
2017-06-10T02:12:25.363Z,18.06
2017-06-10T02:14:26.668Z,18.02
2017-06-10T02:16:42.087Z,17.95
2017-06-10T02:19:05.963Z,17.93
2017-06-10T02:21:07.253Z,18.03
2017-06-10T02:23:22.698Z,17.93
2017-06-10T02:25:38.070Z,17.73
2017-06-10T02:28:01.944Z,17.65
2017-06-10T02:30:25.721Z,17.66
2017-06-10T02:32:41.100Z,17.57
2017-06-10T02:35:04.872Z,17.5
2017-06-10T02:37:20.253Z,17.42
2017-06-10T02:39:44.025Z,17.72
2017-06-10T02:42:07.801Z,17.69
2017-06-10T02:44:31.576Z,17.63
2017-06-10T02:46:55.348Z,17.69
2017-06-10T02:49:19.127Z,17.72
2017-06-10T02:51:42.896Z,17.86
2017-06-10T02:54:06.671Z,17.9
2017-06-10T02:56:30.447Z,17.72
2017-06-10T02:58:45.830Z,17.71
2017-06-10T03:01:09.599Z,18.05
2017-06-10T03:03:17.504Z,18.19
2017-06-10T03:05:41.282Z,17.88
2017-06-10T03:08:05.154Z,18.05
2017-06-10T03:10:29.956Z,18.16
2017-06-10T03:12:53.831Z,17.98
2017-06-10T03:15:17.708Z,17.93
2017-06-10T03:17:41.587Z,17.82
2017-06-10T03:20:06.387Z,17.94
2017-06-10T03:22:16.714Z,18.05
2017-06-10T03:24:40.620Z,18.13
2017-06-10T03:27:04.498Z,18.05
2017-06-10T03:29:28.274Z,18.16
2017-06-10T03:31:43.650Z,18.26
2017-06-10T03:34:07.529Z,18.03
2017-06-10T03:36:14.509Z,18.18
2017-06-10T03:38:38.385Z,17.98
2017-06-10T03:40:54.786Z,18.37
2017-06-10T03:43:10.271Z,18.31
2017-06-10T03:45:25.643Z,18.23
2017-06-10T03:47:50.568Z,18.42
2017-06-10T03:50:14.424Z,18.39
2017-06-10T03:52:31.847Z,18.46
2017-06-10T03:54:56.747Z,18.51
2017-06-10T03:57:13.254Z,18.58
2017-06-10T03:59:38.070Z,18.7
2017-06-10T04:02:01.927Z,18.55
2017-06-10T04:04:25.807Z,18.7
2017-06-10T04:06:49.673Z,18.89
2017-06-10T04:09:13.459Z,18.83
2017-06-10T04:11:28.934Z,19.15
2017-06-10T04:13:59.575Z,19.16
2017-06-10T04:16:23.452Z,19.15
2017-06-10T04:18:47.327Z,19.64
2017-06-10T04:21:11.308Z,21.59
2017-06-10T04:23:18.392Z,23.79
2017-06-10T04:25:33.973Z,25.55
2017-06-10T04:27:58.158Z,27.18
2017-06-10T04:30:22.446Z,28.38
2017-06-10T04:32:38.436Z,29.44
2017-06-10T04:34:40.410Z,30.29
2017-06-10T04:37:05.201Z,31.41
2017-06-10T04:39:23.549Z,31.47
2017-06-10T04:41:48.448Z,31.52
2017-06-10T04:44:13.450Z,32.75
2017-06-10T04:46:38.559Z,32.16
2017-06-10T04:49:03.768Z,32.83
2017-06-10T04:51:28.973Z,32.72
2017-06-10T04:53:56.217Z,33.48
2017-06-10T04:56:23.485Z,34.83
2017-06-10T04:58:48.905Z,37.41
2017-06-10T05:01:13.801Z,38.1
2017-06-10T05:03:16.032Z,38.77
2017-06-10T05:05:33.186Z,38.17
2017-06-10T05:07:58.908Z,40.74
2017-06-10T05:10:24.729Z,41.04
2017-06-10T05:12:42.159Z,41.74
2017-06-10T05:15:08.186Z,42.65
2017-06-10T05:17:25.712Z,43.29
2017-06-10T05:19:43.338Z,42.68
2017-06-10T05:22:17.359Z,45.92
2017-06-10T05:24:11.228Z,47.22
2017-06-10T05:26:38.689Z,47
2017-06-10T05:29:07.183Z,48.25
2017-06-10T05:31:34.714Z,46.59
2017-06-10T05:34:01.390Z,49.9
2017-06-10T05:36:21.574Z,49.06
2017-06-10T05:38:32.851Z,49.33
2017-06-10T05:41:01.766Z,51.36
2017-06-10T05:43:29.723Z,52.32
2017-06-10T05:45:34.479Z,52.76
2017-06-10T05:48:01.605Z,52.77
2017-06-10T05:50:28.761Z,52.77
2017-06-10T05:52:55.914Z,52.28
2017-06-10T05:55:23.067Z,51.73
2017-06-10T05:57:50.325Z,52.29
2017-06-10T06:00:09.079Z,53.34
2017-06-10T06:02:38.484Z,53.12
2017-06-10T06:05:07.898Z,50.89
2017-06-10T06:07:35.355Z,52.13
2017-06-10T06:09:54.214Z,51.91
2017-06-10T06:12:13.070Z,51.05
2017-06-10T06:14:47.091Z,48.33
2017-06-10T06:17:14.450Z,44.96
2017-06-10T06:19:43.754Z,47.82
2017-06-10T06:22:17.665Z,48.7
2017-06-10T06:24:38.165Z,48.61
2017-06-10T06:27:05.216Z,50.74
2017-06-10T06:29:32.265Z,48.53
2017-06-10T06:31:59.342Z,46.32
2017-06-10T06:34:26.473Z,43.41
2017-06-10T06:36:53.729Z,41.44
2017-06-10T06:39:28.668Z,40.99
2017-06-10T06:41:57.045Z,40.81
2017-06-10T06:44:22.667Z,41.1
2017-06-10T06:46:51.973Z,40.85
2017-06-10T06:49:10.521Z,41.83
2017-06-10T06:51:39.519Z,40.83
2017-06-10T06:54:06.366Z,41.17
2017-06-10T06:56:33.110Z,39.1
2017-06-10T06:59:00.674Z,37.91
2017-06-10T07:01:18.614Z,37.58
2017-06-10T07:03:44.949Z,36.13
2017-06-10T07:06:11.181Z,36.16
2017-06-10T07:08:44.169Z,38.42
2017-06-10T07:11:10.199Z,38.95
2017-06-10T07:13:36.225Z,39.08
2017-06-10T07:16:02.259Z,39.66
2017-06-10T07:18:19.679Z,37.88
2017-06-10T07:20:45.604Z,39.22
2017-06-10T07:23:02.925Z,38.5
2017-06-10T07:25:29.775Z,38.58
2017-06-10T07:27:55.599Z,38.28
2017-06-10T07:30:23.467Z,40
2017-06-10T07:32:51.336Z,35.71
2017-06-10T07:34:53.633Z,35.56
2017-06-10T07:37:19.429Z,36.29
2017-06-10T07:39:36.653Z,36.99
2017-06-10T07:42:02.474Z,36.14
2017-06-10T07:44:28.194Z,35.88
2017-06-10T07:46:54.939Z,35.23
2017-06-10T07:49:22.719Z,35.53
2017-06-10T07:51:48.430Z,34.93
2017-06-10T07:54:15.175Z,35.25
2017-06-10T07:56:40.903Z,36.06
2017-06-10T07:59:06.720Z,35.12
2017-06-10T08:01:32.542Z,36.06
2017-06-10T08:03:49.757Z,37.22
2017-06-10T08:06:15.589Z,38.27
2017-06-10T08:08:41.515Z,38.12
2017-06-10T08:11:07.433Z,36.31
2017-06-10T08:13:34.379Z,37.36
2017-06-10T08:16:00.307Z,38.65
2017-06-10T08:18:26.245Z,39.08
2017-06-10T08:20:28.596Z,39.56
2017-06-10T08:24:30.782Z,40.24
2017-06-10T08:26:56.836Z,38.81
2017-06-10T08:29:22.902Z,39.11
2017-06-10T08:31:48.872Z,40.22
2017-06-10T08:34:14.903Z,41.99
2017-06-10T08:36:40.930Z,41.78
2017-06-10T08:39:07.060Z,43.09
2017-06-10T08:41:33.188Z,43.91
2017-06-10T08:43:59.318Z,42.14
2017-06-10T08:46:25.560Z,42.49
2017-06-10T08:48:51.668Z,42.71
2017-06-10T08:51:09.312Z,42.82
2017-06-10T08:53:04.132Z,42.65
2017-06-10T08:55:31.361Z,43.54
2017-06-10T08:57:57.596Z,43.29
2017-06-10T09:00:23.826Z,44.18
2017-06-10T09:02:41.559Z,44.48
2017-06-10T09:05:07.816Z,43.85
2017-06-10T09:07:17.945Z,43.12
2017-06-10T09:09:35.678Z,43.15
2017-06-10T09:12:01.930Z,41.87
2017-06-10T09:13:38.387Z,41.44
2017-06-10T09:15:56.104Z,41.98
2017-06-10T09:18:05.109Z,41.41
2017-06-10T09:20:31.272Z,42
2017-06-10T09:22:57.401Z,39.86
2017-06-10T09:24:51.205Z,41.05
2017-06-10T09:27:17.303Z,38.85
2017-06-10T09:29:43.321Z,39.25
2017-06-10T09:32:09.361Z,38.84
2017-06-10T09:34:35.379Z,35.57
2017-06-10T09:37:01.310Z,32.95
2017-06-10T09:39:27.128Z,33.05
2017-06-10T09:41:52.747Z,32.57
2017-06-10T09:44:09.766Z,33.79
2017-06-10T09:46:26.779Z,32.82
2017-06-10T09:48:43.695Z,32.66
2017-06-10T09:51:09.106Z,34.66
2017-06-10T09:53:34.518Z,36.75
2017-06-10T09:55:59.935Z,35.39
2017-06-10T09:58:16.844Z,36.94
2017-06-10T10:00:27.675Z,36.99
2017-06-10T10:02:53.235Z,37
2017-06-10T10:05:18.747Z,35.96
2017-06-10T10:07:44.268Z,36.14
2017-06-10T10:10:09.786Z,36.44
2017-06-10T10:12:12.002Z,35.88
2017-06-10T10:14:37.565Z,35.75
2017-06-10T10:17:03.085Z,35.81
2017-06-10T10:19:28.600Z,35.45
2017-06-10T10:21:54.114Z,35.05
2017-06-10T10:24:11.129Z,35.03
2017-06-10T10:26:36.646Z,34.11
2017-06-10T10:29:02.057Z,34.28
2017-06-10T10:31:18.973Z,34.51
2017-06-10T10:33:44.387Z,33.94
2017-06-10T10:36:09.798Z,34.35
2017-06-10T10:38:26.614Z,33.22
2017-06-10T10:40:51.923Z,32.64
2017-06-10T10:43:17.228Z,31.93
2017-06-10T10:45:42.540Z,31.39
2017-06-10T10:48:07.855Z,32.24
2017-06-10T10:50:33.063Z,32.39
2017-06-10T10:52:58.269Z,32.19
2017-06-10T10:55:23.479Z,31.78
2017-06-10T10:57:48.583Z,31.87
2017-06-10T11:00:05.192Z,31.86
2017-06-10T11:02:30.295Z,32.26
2017-06-10T11:04:55.401Z,31.92
2017-06-10T11:07:20.507Z,32.09
2017-06-10T11:09:45.615Z,32.41
2017-06-10T11:12:10.723Z,30.59
2017-06-10T11:14:35.826Z,29.37
2017-06-10T11:16:52.430Z,30.81
2017-06-10T11:19:09.039Z,31.78
2017-06-10T11:21:34.145Z,31.2
2017-06-10T11:23:59.255Z,31.45
2017-06-10T11:26:24.355Z,30.99
2017-06-10T11:28:49.362Z,30.4
2017-06-10T11:31:14.364Z,30.85
2017-06-10T11:33:30.869Z,30.76
2017-06-10T11:35:47.372Z,30.73
2017-06-10T11:38:12.377Z,29.86
2017-06-10T11:40:28.813Z,30.26
2017-06-10T11:42:45.283Z,29.59
2017-06-10T11:45:10.185Z,30.71
2017-06-10T11:47:35.190Z,30.51
2017-06-10T11:49:51.693Z,30.71
2017-06-10T11:52:16.698Z,30.38
2017-06-10T11:54:33.200Z,30.17
2017-06-10T11:56:58.203Z,30.67
2017-06-10T11:59:01.294Z,30.91
2017-06-10T12:01:26.295Z,31.26
2017-06-10T12:03:51.299Z,30.74
2017-06-10T12:06:16.301Z,30.85
2017-06-10T12:08:41.306Z,30.17
2017-06-10T12:10:43.473Z,30.67
2017-06-10T12:13:08.470Z,30.4
2017-06-10T12:15:33.377Z,30.4
2017-06-10T12:17:58.276Z,30.36
2017-06-10T12:20:23.181Z,30.52
2017-06-10T12:22:48.185Z,30.27
2017-06-10T12:25:12.997Z,30.8
2017-06-10T12:27:37.887Z,30.86
2017-06-10T12:30:02.785Z,30.29
2017-06-10T12:32:19.287Z,30.17
2017-06-10T12:34:45.215Z,30.55
2017-06-10T12:37:01.717Z,30.31
2017-06-10T12:39:26.617Z,30.86
2017-06-10T12:41:43.020Z,30.18
2017-06-10T12:44:07.924Z,30.35
2017-06-10T12:46:32.823Z,29.94
2017-06-10T12:48:57.726Z,30.23
2017-06-10T12:51:14.129Z,30.59
2017-06-10T12:53:39.027Z,29.99
2017-06-10T12:56:03.928Z,30.16
2017-06-10T12:58:20.356Z,29.34
2017-06-10T13:00:45.235Z,29.83
2017-06-10T13:03:10.132Z,29.28
2017-06-10T13:05:35.030Z,28.84
2017-06-10T13:07:59.935Z,29.46
2017-06-10T13:10:24.835Z,29.98
2017-06-10T13:12:49.747Z,30.46
2017-06-10T13:15:14.643Z,30.56
2017-06-10T13:17:39.544Z,29.8
2017-06-10T13:19:41.597Z,29.95
2017-06-10T13:22:06.505Z,30.16
2017-06-10T13:24:31.408Z,30.32
2017-06-10T13:26:24.987Z,29.64
2017-06-10T13:28:49.874Z,29.39
2017-06-10T13:31:14.776Z,28.3
2017-06-10T13:33:31.175Z,28.45
2017-06-10T13:35:55.979Z,29.09
2017-06-10T13:38:12.277Z,29.07
2017-06-10T13:40:37.076Z,29.67
2017-06-10T13:42:53.374Z,29.69
2017-06-10T13:45:18.178Z,29.84
2017-06-10T13:47:43.075Z,29.61
2017-06-10T13:50:07.977Z,29.89
2017-06-10T13:52:32.877Z,30.08
2017-06-10T13:54:49.282Z,30.4
2017-06-10T13:57:14.079Z,30.52
2017-06-10T13:59:21.989Z,30.48
2017-06-10T14:01:46.883Z,30.26
2017-06-10T14:04:11.680Z,30.13
2017-06-10T14:06:36.584Z,30.61
2017-06-10T14:09:01.382Z,30.33
2017-06-10T14:11:17.681Z,30.32
2017-06-10T14:13:42.592Z,30.8
2017-06-10T14:16:07.482Z,31.26
2017-06-10T14:18:32.383Z,30.98
2017-06-10T14:20:57.283Z,30.96
2017-06-10T14:23:13.687Z,30.13
2017-06-10T14:25:30.088Z,30.73
2017-06-10T14:27:54.992Z,30.92
2017-06-10T14:30:19.988Z,30.21
2017-06-10T14:32:44.895Z,30.32
2017-06-10T14:35:09.792Z,30.03
2017-06-10T14:37:34.697Z,30.17
2017-06-10T14:39:59.600Z,30.16
2017-06-10T14:42:24.400Z,29.89
2017-06-10T14:44:49.299Z,30.06
2017-06-10T14:47:14.200Z,29.73
2017-06-10T14:49:39.099Z,29.52
2017-06-10T14:52:04.000Z,29.61
2017-06-10T14:54:11.905Z,29.09
2017-06-10T14:56:28.303Z,28.55
2017-06-10T14:58:53.105Z,28.55
2017-06-10T15:01:17.908Z,29.09
2017-06-10T15:03:42.702Z,29.42
2017-06-10T15:05:59.003Z,28.96
2017-06-10T15:08:23.804Z,29.22
2017-06-10T15:10:48.615Z,29.43
2017-06-10T15:13:13.404Z,28.9
2017-06-10T15:15:29.705Z,29.27
2017-06-10T15:17:45.996Z,29.09
2017-06-10T15:20:10.797Z,29.35
2017-06-10T15:22:27.098Z,29.65
2017-06-10T15:24:37.731Z,29.86
2017-06-10T15:26:54.167Z,29.34
2017-06-10T15:29:18.966Z,29.65
2017-06-10T15:31:43.765Z,29.12
2017-06-10T15:34:08.562Z,29.21
2017-06-10T15:36:33.360Z,28.78
2017-06-10T15:38:58.160Z,29.3
2017-06-10T15:41:00.208Z,29.13
2017-06-10T15:43:16.626Z,29.49
2017-06-10T15:45:41.428Z,28.9
2017-06-10T15:48:06.231Z,28.27
2017-06-10T15:50:31.021Z,29.03
2017-06-10T15:52:55.822Z,28.96
2017-06-10T15:55:20.621Z,29.34
2017-06-10T15:57:45.421Z,28.87
2017-06-10T16:00:10.220Z,29.22
2017-06-10T16:02:18.020Z,29.4
2017-06-10T16:04:42.818Z,29.39
2017-06-10T16:06:36.383Z,28.83
2017-06-10T16:09:01.185Z,28.82
2017-06-10T16:11:25.979Z,28.94
2017-06-10T16:13:50.780Z,28.87
2017-06-10T16:16:15.577Z,29.1
2017-06-10T16:18:31.879Z,28.96
2017-06-10T16:20:56.674Z,29.09
2017-06-10T16:23:21.476Z,28.93
2017-06-10T16:25:46.276Z,29.1
2017-06-10T16:28:02.574Z,28.55
2017-06-10T16:30:27.376Z,28.55
2017-06-10T16:32:29.396Z,28.43
2017-06-10T16:34:54.136Z,28.53
2017-06-10T16:37:10.435Z,28.31
2017-06-10T16:39:35.129Z,28.78
2017-06-10T16:41:59.826Z,28.49
2017-06-10T16:44:24.522Z,28.45
2017-06-10T16:46:49.215Z,28.22
2017-06-10T16:49:05.413Z,28
2017-06-10T16:51:30.114Z,27.85
2017-06-10T16:53:46.310Z,27.81
2017-06-10T16:56:10.933Z,27.71
2017-06-10T16:58:35.546Z,27.81
2017-06-10T17:00:45.634Z,27.63
2017-06-10T17:03:10.302Z,27.83
2017-06-10T17:05:26.429Z,28.12
2017-06-10T17:07:51.052Z,27.97
2017-06-10T17:10:15.677Z,28.18
2017-06-10T17:12:40.262Z,27.98
2017-06-10T17:14:56.415Z,28.2
2017-06-10T17:17:12.571Z,28.3
2017-06-10T17:19:37.192Z,28.19
2017-06-10T17:22:01.809Z,28.2
2017-06-10T17:24:26.380Z,28.31
2017-06-10T17:26:36.478Z,27.86
2017-06-10T17:29:01.120Z,27.6
2017-06-10T17:31:25.750Z,27.53
2017-06-10T17:33:35.836Z,27.83
2017-06-10T17:36:00.485Z,27.67
2017-06-10T17:38:25.075Z,27.44
2017-06-10T17:40:49.673Z,27.58
2017-06-10T17:43:14.238Z,27.86
2017-06-10T17:45:38.863Z,27.63
2017-06-10T17:48:03.408Z,27.3
2017-06-10T17:50:19.543Z,26.85
2017-06-10T17:52:44.137Z,26.96
2017-06-10T17:55:08.698Z,27.1
2017-06-10T17:57:33.213Z,27.26
2017-06-10T17:59:57.776Z,27.25
2017-06-10T18:02:22.360Z,27.15
2017-06-10T18:04:46.943Z,26.93
2017-06-10T18:07:03.026Z,27.08
2017-06-10T18:09:04.535Z,26.86
2017-06-10T18:11:29.106Z,26.79
2017-06-10T18:13:45.196Z,26.85
2017-06-10T18:16:09.751Z,26.82
2017-06-10T18:18:34.276Z,26.7
2017-06-10T18:20:58.820Z,26.83
2017-06-10T18:23:14.868Z,26.78
2017-06-10T18:25:30.898Z,26.6
2017-06-10T18:27:55.348Z,26.49
2017-06-10T18:30:19.855Z,25.95
2017-06-10T18:32:44.330Z,26.42
2017-06-10T18:35:00.340Z,26.13
2017-06-10T18:37:24.830Z,26.07
2017-06-10T18:39:49.298Z,26.19
2017-06-10T18:42:13.802Z,26.22
2017-06-10T18:44:23.842Z,26.42
2017-06-10T18:46:48.366Z,26.11
2017-06-10T18:49:12.856Z,26.07
2017-06-10T18:51:28.848Z,26.11
2017-06-10T18:53:44.886Z,25.8
2017-06-10T18:56:09.358Z,25.85
2017-06-10T18:58:33.821Z,25.91
2017-06-10T19:00:58.263Z,25.78
2017-06-10T19:03:22.719Z,25.81
2017-06-10T19:05:47.161Z,25.77
2017-06-10T19:08:11.538Z,25.83
2017-06-10T19:10:21.579Z,25.61
2017-06-10T19:12:37.592Z,25.25
2017-06-10T19:15:02.037Z,25.58
2017-06-10T19:17:26.447Z,25.37
2017-06-10T19:19:50.845Z,25.44
2017-06-10T19:21:52.406Z,25.24
2017-06-10T19:24:16.812Z,25.19
2017-06-10T19:26:41.184Z,24.92
2017-06-10T19:29:05.546Z,25
2017-06-10T19:31:29.913Z,24.81
2017-06-10T19:33:54.269Z,24.85
2017-06-10T19:36:10.203Z,24.59
2017-06-10T19:38:34.545Z,24.31
2017-06-10T19:40:50.441Z,24.46
2017-06-10T19:43:14.803Z,24.48
2017-06-10T19:45:39.147Z,24.69
2017-06-10T19:48:03.486Z,24.66
2017-06-10T19:50:19.303Z,24.75
2017-06-10T19:52:35.117Z,24.69
2017-06-10T19:54:59.474Z,24.28
2017-06-10T19:57:23.786Z,24.31
2017-06-10T19:59:48.088Z,24.24
2017-06-10T20:02:12.397Z,24.26
2017-06-10T20:04:36.705Z,24.47
2017-06-10T20:07:01.044Z,24.28
2017-06-10T20:09:25.347Z,24.09
2017-06-10T20:11:49.668Z,24.24
2017-06-10T20:14:14.005Z,24.32
2017-06-10T20:16:29.865Z,24.22
2017-06-10T20:18:45.682Z,24.19
2017-06-10T20:21:09.954Z,24.03
2017-06-10T20:23:34.236Z,23.84
2017-06-10T20:25:58.519Z,23.86
2017-06-10T20:28:14.377Z,23.71
2017-06-10T20:30:38.656Z,23.59
2017-06-10T20:32:54.446Z,23.73
2017-06-10T20:35:01.817Z,23.62
2017-06-10T20:37:12.289Z,23.59
2017-06-10T20:39:36.554Z,23.62
2017-06-10T20:42:00.828Z,23.55
2017-06-10T20:44:25.099Z,23.25
2017-06-10T20:46:40.916Z,23.14
2017-06-10T20:48:42.865Z,23.18
2017-06-10T20:51:07.142Z,23.33
2017-06-10T20:53:31.395Z,23.37
2017-06-10T20:55:55.590Z,22.93
2017-06-10T20:58:19.813Z,22.88
2017-06-10T21:00:44.039Z,22.62
2017-06-10T21:03:08.250Z,22.67
2017-06-10T21:05:32.446Z,22.53
2017-06-10T21:07:56.649Z,22.74
2017-06-10T21:10:20.858Z,22.67
2017-06-10T21:12:45.037Z,22.71
2017-06-10T21:15:00.773Z,22.71
2017-06-10T21:17:24.934Z,22.8
2017-06-10T21:19:49.095Z,22.67
2017-06-10T21:22:14.261Z,22.68
2017-06-10T21:24:38.441Z,22.52
2017-06-10T21:27:02.639Z,22.41
2017-06-10T21:29:26.808Z,22.52
2017-06-10T21:31:51.051Z,22.25
2017-06-10T21:33:52.640Z,22.26
2017-06-10T21:36:16.894Z,22.4
2017-06-10T21:38:24.285Z,22.59
2017-06-10T21:40:48.472Z,22.53
2017-06-10T21:43:12.754Z,22.76
2017-06-10T21:45:28.541Z,22.8
2017-06-10T21:47:52.727Z,22.52
2017-06-10T21:50:16.908Z,22.53
2017-06-10T21:52:41.093Z,22.28
2017-06-10T21:55:05.275Z,22.38
2017-06-10T21:57:21.066Z,22.19
2017-06-10T21:59:45.250Z,22.38
2017-06-10T22:02:09.438Z,22.58
2017-06-10T22:04:33.615Z,22.59
2017-06-10T22:06:35.018Z,22.46
2017-06-10T22:08:45.452Z,22.61
2017-06-10T22:11:09.720Z,22.68
2017-06-10T22:13:34.005Z,22.52
2017-06-10T22:15:49.790Z,22.25
2017-06-10T22:18:13.982Z,22.22
2017-06-10T22:20:38.165Z,22.14
2017-06-10T22:23:03.366Z,22.22
2017-06-10T22:25:13.305Z,22.07
2017-06-10T22:27:37.495Z,22.19
2017-06-10T22:30:01.684Z,22.15
2017-06-10T22:32:17.468Z,22.03
2017-06-10T22:34:41.653Z,21.88
2017-06-10T22:37:05.832Z,22.04
2017-06-10T22:39:21.634Z,22.01
2017-06-10T22:41:45.817Z,21.99
2017-06-10T22:43:47.211Z,22
2017-06-10T22:45:54.557Z,21.83
2017-06-10T22:48:18.744Z,21.97
2017-06-10T22:50:42.924Z,21.97
2017-06-10T22:53:07.104Z,21.84
2017-06-10T22:55:31.288Z,21.92
2017-06-10T22:57:55.478Z,21.69
2017-06-10T23:00:11.160Z,21.74
2017-06-10T23:02:26.945Z,21.54
2017-06-10T23:04:51.129Z,21.74
2017-06-10T23:07:15.315Z,21.38
2017-06-10T23:09:39.400Z,21.74
2017-06-10T23:12:03.581Z,21.88
2017-06-10T23:14:27.766Z,21.75
2017-06-10T23:16:51.954Z,21.69
2017-06-10T23:19:16.139Z,21.78
2017-06-10T23:21:23.419Z,21.66
2017-06-10T23:23:47.608Z,21.48
2017-06-10T23:26:11.688Z,21.35
2017-06-10T23:28:35.773Z,21.56
2017-06-10T23:30:43.059Z,21.58
2017-06-10T23:32:52.967Z,21.74
2017-06-10T23:35:17.091Z,21.54
2017-06-10T23:37:18.425Z,21.5
2017-06-10T23:39:28.338Z,21.29
2017-06-10T23:41:44.074Z,21.25
2017-06-10T23:44:08.255Z,21.23
2017-06-10T23:46:18.200Z,21.22
2017-06-10T23:48:42.292Z,21.23
2017-06-10T23:50:43.663Z,21.26
2017-06-10T23:52:45.119Z,21.28
2017-06-10T23:55:00.773Z,21.13
2017-06-10T23:57:24.855Z,21.07
2017-06-10T23:59:34.831Z,21.08
